Addison, Maine
Current Conditions -  °F | °C
As of 8:15 AM on Saturday 01 Nov 2014 (Local Time) from KBHB Reporting Station
Overcast Overcast  
Wind Chill: 36°   Ceiling: 6500
Heat Index: 43°   Visibility: 10mi
Dew Point: 39°   Wind: 14mph
Humidity: 87%   Direction: 20°NNE
Pressure: 29.99"   Gusts: 20mph
Location:  44.62°N, 67.74°W
Report Text: KBHB 011215Z AUTO 02012G17KT 10SM OVC065 06/04 A2999 RMK AO1
Loading
Personal Weather Stations






























Interactive Weather Map
Tropical Storm Tracking
New forecast layout! Learn more

10-Day Weather Forecast

Advertisements
Track Severe Weather on mobile